sensor_id;sensor_type;location;lat;lon;timestamp;temperature;humidity
8114;DHT22;4099;52.684;9.918;2023-02-18T00:01:13;5.90;99.90
8114;DHT22;4099;52.684;9.918;2023-02-18T00:06:17;6.10;99.90
8114;DHT22;4099;52.684;9.918;2023-02-18T00:11:21;6.10;99.90
8114;DHT22;4099;52.684;9.918;2023-02-18T00:16:24;6.10;99.90
8114;DHT22;4099;52.684;9.918;2023-02-18T00:21:26;6.10;99.90
8114;DHT22;4099;52.684;9.918;2023-02-18T00:26:30;6.10;99.90
8114;DHT22;4099;52.684;9.918;2023-02-18T00:31:33;6.10;99.90
8114;DHT22;4099;52.684;9.918;2023-02-18T00:36:35;6.10;99.90
8114;DHT22;4099;52.684;9.918;2023-02-18T00:41:38;6.20;99.90
8114;DHT22;4099;52.684;9.918;2023-02-18T00:46:41;6.30;99.90
8114;DHT22;4099;52.684;9.918;2023-02-18T00:51:43;6.30;99.90
8114;DHT22;4099;52.684;9.918;2023-02-18T00:56:46;6.40;99.90
8114;DHT22;4099;52.684;9.918;2023-02-18T01:01:50;6.30;99.90
8114;DHT22;4099;52.684;9.918;2023-02-18T01:06:52;6.40;99.90
8114;DHT22;4099;52.684;9.918;2023-02-18T01:11:55;6.50;99.90
8114;DHT22;4099;52.684;9.918;2023-02-18T01:16:56;6.60;99.90
8114;DHT22;4099;52.684;9.918;2023-02-18T01:21:58;6.60;99.90
8114;DHT22;4099;52.684;9.918;2023-02-18T01:27:02;6.60;99.90
8114;DHT22;4099;52.684;9.918;2023-02-18T01:32:03;6.70;99.90
8114;DHT22;4099;52.684;9.918;2023-02-18T01:37:05;6.80;99.90
8114;DHT22;4099;52.684;9.918;2023-02-18T01:42:17;6.80;99.90
8114;DHT22;4099;52.684;9.918;2023-02-18T01:47:20;6.80;99.90
8114;DHT22;4099;52.684;9.918;2023-02-18T01:52:24;6.80;99.90
8114;DHT22;4099;52.684;9.918;2023-02-18T01:57:37;6.80;99.90
8114;DHT22;4099;52.684;9.918;2023-02-18T02:02:43;6.90;99.90
8114;DHT22;4099;52.684;9.918;2023-02-18T02:07:47;6.90;99.90
8114;DHT22;4099;52.684;9.918;2023-02-18T02:12:58;6.80;99.90
8114;DHT22;4099;52.684;9.918;2023-02-18T02:18:19;6.90;99.90
8114;DHT22;4099;52.684;9.918;2023-02-18T02:23:46;6.90;99.90
8114;DHT22;4099;52.684;9.918;2023-02-18T02:34:45;6.90;99.90
8114;DHT22;4099;52.684;9.918;2023-02-18T02:39:56;6.90;99.90
8114;DHT22;4099;52.684;9.918;2023-02-18T02:45:05;6.90;99.90
8114;DHT22;4099;52.684;9.918;2023-02-18T02:55:19;6.90;99.90
8114;DHT22;4099;52.684;9.918;2023-02-18T03:00:34;6.80;99.90
8114;DHT22;4099;52.684;9.918;2023-02-18T03:05:56;6.90;99.90
8114;DHT22;4099;52.684;9.918;2023-02-18T03:11:05;6.80;99.90
8114;DHT22;4099;52.684;9.918;2023-02-18T03:16:16;6.90;99.90
8114;DHT22;4099;52.684;9.918;2023-02-18T03:21:27;6.90;99.90
8114;DHT22;4099;52.684;9.918;2023-02-18T03:26:31;6.80;99.90
8114;DHT22;4099;52.684;9.918;2023-02-18T03:31:37;6.90;99.90
8114;DHT22;4099;52.684;9.918;2023-02-18T03:36:41;6.90;99.90
8114;DHT22;4099;52.684;9.918;2023-02-18T03:41:44;6.90;99.90
8114;DHT22;4099;52.684;9.918;2023-02-18T03:46:46;6.90;99.90
8114;DHT22;4099;52.684;9.918;2023-02-18T03:51:50;6.90;99.90
8114;DHT22;4099;52.684;9.918;2023-02-18T03:56:52;6.90;99.90
8114;DHT22;4099;52.684;9.918;2023-02-18T04:01:54;6.90;99.90
8114;DHT22;4099;52.684;9.918;2023-02-18T04:06:57;6.90;99.90
8114;DHT22;4099;52.684;9.918;2023-02-18T04:11:59;7.00;99.90
8114;DHT22;4099;52.684;9.918;2023-02-18T04:17:01;7.00;99.90
8114;DHT22;4099;52.684;9.918;2023-02-18T04:22:04;6.90;99.90
8114;DHT22;4099;52.684;9.918;2023-02-18T04:27:06;6.90;99.90
8114;DHT22;4099;52.684;9.918;2023-02-18T04:32:08;6.90;99.90
8114;DHT22;4099;52.684;9.918;2023-02-18T04:37:11;6.80;99.90
8114;DHT22;4099;52.684;9.918;2023-02-18T04:42:13;6.80;99.90
8114;DHT22;4099;52.684;9.918;2023-02-18T04:47:14;6.60;99.90
8114;DHT22;4099;52.684;9.918;2023-02-18T04:52:18;6.50;99.90
8114;DHT22;4099;52.684;9.918;2023-02-18T04:57:19;6.50;99.90
8114;DHT22;4099;52.684;9.918;2023-02-18T05:02:21;6.50;99.90
8114;DHT22;4099;52.684;9.918;2023-02-18T05:07:24;6.40;99.90
8114;DHT22;4099;52.684;9.918;2023-02-18T05:12:26;6.40;99.90
8114;DHT22;4099;52.684;9.918;2023-02-18T05:17:28;6.30;99.90
8114;DHT22;4099;52.684;9.918;2023-02-18T05:22:31;6.30;99.90
8114;DHT22;4099;52.684;9.918;2023-02-18T05:27:33;6.40;99.90
8114;DHT22;4099;52.684;9.918;2023-02-18T05:32:34;6.40;99.90
8114;DHT22;4099;52.684;9.918;2023-02-18T05:37:37;6.30;99.90
8114;DHT22;4099;52.684;9.918;2023-02-18T05:42:39;6.30;99.90
8114;DHT22;4099;52.684;9.918;2023-02-18T05:47:41;6.20;99.90
8114;DHT22;4099;52.684;9.918;2023-02-18T05:52:44;6.20;99.90
8114;DHT22;4099;52.684;9.918;2023-02-18T05:57:46;6.20;99.90
8114;DHT22;4099;52.684;9.918;2023-02-18T06:02:48;6.10;99.90
8114;DHT22;4099;52.684;9.918;2023-02-18T06:07:51;6.10;99.90
8114;DHT22;4099;52.684;9.918;2023-02-18T06:12:52;6.10;99.90
8114;DHT22;4099;52.684;9.918;2023-02-18T06:17:54;6.10;99.90
8114;DHT22;4099;52.684;9.918;2023-02-18T06:22:57;6.10;99.90
8114;DHT22;4099;52.684;9.918;2023-02-18T06:27:59;6.00;99.90
8114;DHT22;4099;52.684;9.918;2023-02-18T06:33:03;6.00;99.90
8114;DHT22;4099;52.684;9.918;2023-02-18T06:38:07;6.10;99.90
8114;DHT22;4099;52.684;9.918;2023-02-18T06:43:08;6.10;99.90
8114;DHT22;4099;52.684;9.918;2023-02-18T06:48:11;6.10;99.90
8114;DHT22;4099;52.684;9.918;2023-02-18T06:53:14;6.10;99.90
8114;DHT22;4099;52.684;9.918;2023-02-18T06:58:20;6.10;99.90
8114;DHT22;4099;52.684;9.918;2023-02-18T07:03:23;6.10;99.90
8114;DHT22;4099;52.684;9.918;2023-02-18T07:08:26;6.20;99.90
8114;DHT22;4099;52.684;9.918;2023-02-18T07:13:29;6.20;99.90
8114;DHT22;4099;52.684;9.918;2023-02-18T07:18:31;6.30;99.90
8114;DHT22;4099;52.684;9.918;2023-02-18T07:23:34;6.50;99.90
8114;DHT22;4099;52.684;9.918;2023-02-18T07:28:36;6.60;99.90
8114;DHT22;4099;52.684;9.918;2023-02-18T07:33:38;6.60;99.90
8114;DHT22;4099;52.684;9.918;2023-02-18T07:38:41;6.70;99.90
8114;DHT22;4099;52.684;9.918;2023-02-18T07:43:43;6.80;99.90
8114;DHT22;4099;52.684;9.918;2023-02-18T07:48:45;6.80;99.90
8114;DHT22;4099;52.684;9.918;2023-02-18T07:53:48;6.80;99.90
8114;DHT22;4099;52.684;9.918;2023-02-18T07:58:50;6.80;99.90
8114;DHT22;4099;52.684;9.918;2023-02-18T08:03:51;6.80;99.90
8114;DHT22;4099;52.684;9.918;2023-02-18T08:08:54;6.90;99.90
8114;DHT22;4099;52.684;9.918;2023-02-18T08:13:56;6.90;99.90
8114;DHT22;4099;52.684;9.918;2023-02-18T08:18:58;6.90;99.90
8114;DHT22;4099;52.684;9.918;2023-02-18T08:24:02;6.90;99.90
8114;DHT22;4099;52.684;9.918;2023-02-18T08:29:04;6.90;99.90
8114;DHT22;4099;52.684;9.918;2023-02-18T08:34:06;7.00;99.90
8114;DHT22;4099;52.684;9.918;2023-02-18T08:39:10;7.00;99.90
8114;DHT22;4099;52.684;9.918;2023-02-18T08:44:12;7.10;99.90
8114;DHT22;4099;52.684;9.918;2023-02-18T08:49:13;7.20;99.90
8114;DHT22;4099;52.684;9.918;2023-02-18T08:54:17;7.20;99.90
8114;DHT22;4099;52.684;9.918;2023-02-18T08:59:19;7.30;99.90
8114;DHT22;4099;52.684;9.918;2023-02-18T09:04:26;7.30;99.90
8114;DHT22;4099;52.684;9.918;2023-02-18T09:09:29;7.50;99.90
8114;DHT22;4099;52.684;9.918;2023-02-18T09:14:31;7.60;99.90
8114;DHT22;4099;52.684;9.918;2023-02-18T09:19:32;8.00;99.90
8114;DHT22;4099;52.684;9.918;2023-02-18T09:24:37;8.50;99.90
8114;DHT22;4099;52.684;9.918;2023-02-18T09:29:40;9.10;99.90
8114;DHT22;4099;52.684;9.918;2023-02-18T09:34:43;9.40;99.90
8114;DHT22;4099;52.684;9.918;2023-02-18T09:39:46;9.70;99.90
8114;DHT22;4099;52.684;9.918;2023-02-18T09:44:51;9.80;99.90
8114;DHT22;4099;52.684;9.918;2023-02-18T09:49:57;9.90;99.90
8114;DHT22;4099;52.684;9.918;2023-02-18T09:55:05;9.90;99.90
8114;DHT22;4099;52.684;9.918;2023-02-18T10:00:19;10.00;99.90
8114;DHT22;4099;52.684;9.918;2023-02-18T10:05:23;10.00;99.90
8114;DHT22;4099;52.684;9.918;2023-02-18T10:10:35;10.10;99.90
8114;DHT22;4099;52.684;9.918;2023-02-18T10:15:38;10.10;99.90
8114;DHT22;4099;52.684;9.918;2023-02-18T10:20:40;10.10;99.90
8114;DHT22;4099;52.684;9.918;2023-02-18T10:25:44;10.20;99.90
8114;DHT22;4099;52.684;9.918;2023-02-18T10:30:54;10.30;99.90
8114;DHT22;4099;52.684;9.918;2023-02-18T10:36:05;10.30;99.90
8114;DHT22;4099;52.684;9.918;2023-02-18T10:41:20;10.20;99.90
8114;DHT22;4099;52.684;9.918;2023-02-18T10:46:31;10.10;99.90
8114;DHT22;4099;52.684;9.918;2023-02-18T10:51:36;10.10;99.90
8114;DHT22;4099;52.684;9.918;2023-02-18T10:56:46;10.00;99.90
8114;DHT22;4099;52.684;9.918;2023-02-18T11:01:54;10.00;99.90
8114;DHT22;4099;52.684;9.918;2023-02-18T11:07:03;10.00;99.90
8114;DHT22;4099;52.684;9.918;2023-02-18T11:12:15;10.00;99.90
8114;DHT22;4099;52.684;9.918;2023-02-18T11:17:20;10.00;99.90
8114;DHT22;4099;52.684;9.918;2023-02-18T11:22:25;10.00;99.90
8114;DHT22;4099;52.684;9.918;2023-02-18T11:27:39;10.10;99.90
8114;DHT22;4099;52.684;9.918;2023-02-18T11:32:43;10.00;99.90
8114;DHT22;4099;52.684;9.918;2023-02-18T11:37:45;10.10;99.90
8114;DHT22;4099;52.684;9.918;2023-02-18T11:42:48;10.00;99.90
8114;DHT22;4099;52.684;9.918;2023-02-18T11:47:58;10.10;99.90
8114;DHT22;4099;52.684;9.918;2023-02-18T11:53:24;10.10;99.90
8114;DHT22;4099;52.684;9.918;2023-02-18T11:58:34;10.10;99.90
8114;DHT22;4099;52.684;9.918;2023-02-18T12:03:43;10.00;99.90
8114;DHT22;4099;52.684;9.918;2023-02-18T12:08:52;10.00;99.90
8114;DHT22;4099;52.684;9.918;2023-02-18T12:13:58;10.00;99.90
8114;DHT22;4099;52.684;9.918;2023-02-18T12:19:14;10.00;99.90
8114;DHT22;4099;52.684;9.918;2023-02-18T12:24:31;9.90;99.90
8114;DHT22;4099;52.684;9.918;2023-02-18T12:29:51;9.90;99.90
8114;DHT22;4099;52.684;9.918;2023-02-18T12:35:08;9.80;99.90
8114;DHT22;4099;52.684;9.918;2023-02-18T12:40:26;9.80;99.90
8114;DHT22;4099;52.684;9.918;2023-02-18T12:45:58;9.80;99.90
8114;DHT22;4099;52.684;9.918;2023-02-18T12:51:25;9.80;99.90
8114;DHT22;4099;52.684;9.918;2023-02-18T12:56:45;9.70;99.90
8114;DHT22;4099;52.684;9.918;2023-02-18T13:01:58;9.70;99.90
8114;DHT22;4099;52.684;9.918;2023-02-18T13:07:43;9.70;99.90
8114;DHT22;4099;52.684;9.918;2023-02-18T13:12:54;9.70;99.90
8114;DHT22;4099;52.684;9.918;2023-02-18T13:18:00;9.60;99.90
8114;DHT22;4099;52.684;9.918;2023-02-18T13:23:05;9.60;99.90
8114;DHT22;4099;52.684;9.918;2023-02-18T13:28:16;9.70;99.90
8114;DHT22;4099;52.684;9.918;2023-02-18T13:33:29;9.60;99.90
8114;DHT22;4099;52.684;9.918;2023-02-18T13:38:50;9.60;99.90
8114;DHT22;4099;52.684;9.918;2023-02-18T13:43:53;9.60;99.90
8114;DHT22;4099;52.684;9.918;2023-02-18T13:49:05;9.60;99.90
8114;DHT22;4099;52.684;9.918;2023-02-18T13:54:15;9.60;99.90
8114;DHT22;4099;52.684;9.918;2023-02-18T13:59:21;9.60;99.90
8114;DHT22;4099;52.684;9.918;2023-02-18T14:09:52;9.60;99.90
8114;DHT22;4099;52.684;9.918;2023-02-18T14:14:54;9.60;99.90
8114;DHT22;4099;52.684;9.918;2023-02-18T14:20:28;9.60;99.90
8114;DHT22;4099;52.684;9.918;2023-02-18T14:25:35;9.60;99.90
8114;DHT22;4099;52.684;9.918;2023-02-18T14:30:40;9.60;99.90
8114;DHT22;4099;52.684;9.918;2023-02-18T14:35:48;9.60;99.90
8114;DHT22;4099;52.684;9.918;2023-02-18T14:46:34;9.60;99.90
8114;DHT22;4099;52.684;9.918;2023-02-18T14:51:42;9.60;99.90
8114;DHT22;4099;52.684;9.918;2023-02-18T14:56:54;9.60;99.90
8114;DHT22;4099;52.684;9.918;2023-02-18T15:01:56;9.60;99.90
8114;DHT22;4099;52.684;9.918;2023-02-18T15:07:01;9.60;99.90
8114;DHT22;4099;52.684;9.918;2023-02-18T15:12:08;9.60;99.90
8114;DHT22;4099;52.684;9.918;2023-02-18T15:17:14;9.70;99.90
8114;DHT22;4099;52.684;9.918;2023-02-18T15:22:20;9.70;99.90
8114;DHT22;4099;52.684;9.918;2023-02-18T15:27:24;9.60;99.90
8114;DHT22;4099;52.684;9.918;2023-02-18T15:32:30;9.60;99.90
8114;DHT22;4099;52.684;9.918;2023-02-18T15:37:33;9.60;99.90
8114;DHT22;4099;52.684;9.918;2023-02-18T15:42:36;9.60;99.90
8114;DHT22;4099;52.684;9.918;2023-02-18T15:47:41;9.50;99.90
8114;DHT22;4099;52.684;9.918;2023-02-18T15:52:46;9.50;99.90
8114;DHT22;4099;52.684;9.918;2023-02-18T15:57:48;9.50;99.90
8114;DHT22;4099;52.684;9.918;2023-02-18T16:02:55;9.50;99.90
8114;DHT22;4099;52.684;9.918;2023-02-18T16:08:01;9.40;99.90
8114;DHT22;4099;52.684;9.918;2023-02-18T16:13:06;9.40;99.90
8114;DHT22;4099;52.684;9.918;2023-02-18T16:18:20;9.40;99.90
8114;DHT22;4099;52.684;9.918;2023-02-18T16:23:31;9.30;99.90
8114;DHT22;4099;52.684;9.918;2023-02-18T16:28:34;9.20;99.90
8114;DHT22;4099;52.684;9.918;2023-02-18T16:33:35;9.30;99.90
8114;DHT22;4099;52.684;9.918;2023-02-18T16:38:38;9.20;99.90
8114;DHT22;4099;52.684;9.918;2023-02-18T16:43:42;9.20;99.90
8114;DHT22;4099;52.684;9.918;2023-02-18T16:48:45;9.10;99.90
8114;DHT22;4099;52.684;9.918;2023-02-18T16:53:51;9.10;99.90
8114;DHT22;4099;52.684;9.918;2023-02-18T16:58:53;9.00;99.90
8114;DHT22;4099;52.684;9.918;2023-02-18T17:03:56;9.00;99.90
8114;DHT22;4099;52.684;9.918;2023-02-18T17:08:59;9.00;99.90
8114;DHT22;4099;52.684;9.918;2023-02-18T17:14:01;9.10;99.90
8114;DHT22;4099;52.684;9.918;2023-02-18T17:19:04;9.10;99.90
8114;DHT22;4099;52.684;9.918;2023-02-18T17:24:10;9.00;99.90
8114;DHT22;4099;52.684;9.918;2023-02-18T17:29:12;9.00;99.90
8114;DHT22;4099;52.684;9.918;2023-02-18T17:34:16;9.00;99.90
8114;DHT22;4099;52.684;9.918;2023-02-18T17:39:21;9.00;99.90
8114;DHT22;4099;52.684;9.918;2023-02-18T17:44:23;9.00;99.90
8114;DHT22;4099;52.684;9.918;2023-02-18T17:49:27;9.00;99.90
8114;DHT22;4099;52.684;9.918;2023-02-18T17:54:30;9.00;99.90
8114;DHT22;4099;52.684;9.918;2023-02-18T17:59:32;9.00;99.90
8114;DHT22;4099;52.684;9.918;2023-02-18T18:04:33;8.80;99.90
8114;DHT22;4099;52.684;9.918;2023-02-18T18:09:36;8.70;99.90
8114;DHT22;4099;52.684;9.918;2023-02-18T18:14:38;8.70;99.90
8114;DHT22;4099;52.684;9.918;2023-02-18T18:19:40;8.60;99.90
8114;DHT22;4099;52.684;9.918;2023-02-18T18:24:43;8.60;99.90
8114;DHT22;4099;52.684;9.918;2023-02-18T18:29:44;8.50;99.90
8114;DHT22;4099;52.684;9.918;2023-02-18T18:34:46;8.50;99.90
8114;DHT22;4099;52.684;9.918;2023-02-18T18:39:49;8.50;99.90
8114;DHT22;4099;52.684;9.918;2023-02-18T18:44:54;8.50;99.90
8114;DHT22;4099;52.684;9.918;2023-02-18T18:49:56;8.50;99.90
8114;DHT22;4099;52.684;9.918;2023-02-18T18:54:59;8.50;99.90
8114;DHT22;4099;52.684;9.918;2023-02-18T19:00:01;8.50;99.90
8114;DHT22;4099;52.684;9.918;2023-02-18T19:05:03;8.40;99.90
8114;DHT22;4099;52.684;9.918;2023-02-18T19:10:07;8.40;99.90
8114;DHT22;4099;52.684;9.918;2023-02-18T19:15:11;8.30;99.90
8114;DHT22;4099;52.684;9.918;2023-02-18T19:20:16;8.30;99.90
8114;DHT22;4099;52.684;9.918;2023-02-18T19:25:20;8.30;99.90
8114;DHT22;4099;52.684;9.918;2023-02-18T19:30:24;8.20;99.90
8114;DHT22;4099;52.684;9.918;2023-02-18T19:35:27;8.20;99.90
8114;DHT22;4099;52.684;9.918;2023-02-18T19:40:30;8.20;99.90
8114;DHT22;4099;52.684;9.918;2023-02-18T19:45:32;8.10;99.90
8114;DHT22;4099;52.684;9.918;2023-02-18T19:50:34;8.10;99.90
8114;DHT22;4099;52.684;9.918;2023-02-18T19:55:38;8.10;99.90
8114;DHT22;4099;52.684;9.918;2023-02-18T20:00:39;8.00;99.90
8114;DHT22;4099;52.684;9.918;2023-02-18T20:05:43;8.00;99.90
8114;DHT22;4099;52.684;9.918;2023-02-18T20:10:55;7.90;99.90
8114;DHT22;4099;52.684;9.918;2023-02-18T20:15:56;7.90;99.90
8114;DHT22;4099;52.684;9.918;2023-02-18T20:20:58;7.90;99.90
8114;DHT22;4099;52.684;9.918;2023-02-18T20:26:05;8.00;99.90
8114;DHT22;4099;52.684;9.918;2023-02-18T20:31:09;7.90;99.90
8114;DHT22;4099;52.684;9.918;2023-02-18T20:36:12;7.90;99.90
8114;DHT22;4099;52.684;9.918;2023-02-18T20:41:20;7.90;99.90
8114;DHT22;4099;52.684;9.918;2023-02-18T20:46:22;7.90;99.90
8114;DHT22;4099;52.684;9.918;2023-02-18T20:51:24;7.80;99.90
8114;DHT22;4099;52.684;9.918;2023-02-18T20:56:27;7.80;99.90
8114;DHT22;4099;52.684;9.918;2023-02-18T21:01:29;7.70;99.90
8114;DHT22;4099;52.684;9.918;2023-02-18T21:06:31;7.60;99.90
8114;DHT22;4099;52.684;9.918;2023-02-18T21:11:35;7.60;99.90
8114;DHT22;4099;52.684;9.918;2023-02-18T21:16:37;7.60;99.90
8114;DHT22;4099;52.684;9.918;2023-02-18T21:21:39;7.50;99.90
8114;DHT22;4099;52.684;9.918;2023-02-18T21:26:42;7.50;99.90
8114;DHT22;4099;52.684;9.918;2023-02-18T21:31:44;7.50;99.90
8114;DHT22;4099;52.684;9.918;2023-02-18T21:36:46;7.50;99.90
8114;DHT22;4099;52.684;9.918;2023-02-18T21:41:49;7.50;99.90
8114;DHT22;4099;52.684;9.918;2023-02-18T21:46:51;7.50;99.90
8114;DHT22;4099;52.684;9.918;2023-02-18T21:51:52;7.40;99.90
8114;DHT22;4099;52.684;9.918;2023-02-18T21:57:00;7.50;99.90
8114;DHT22;4099;52.684;9.918;2023-02-18T22:02:04;7.50;99.90
8114;DHT22;4099;52.684;9.918;2023-02-18T22:07:09;7.50;99.90
8114;DHT22;4099;52.684;9.918;2023-02-18T22:12:12;7.50;99.90
8114;DHT22;4099;52.684;9.918;2023-02-18T22:17:15;7.50;99.90
8114;DHT22;4099;52.684;9.918;2023-02-18T22:22:16;7.50;99.90
8114;DHT22;4099;52.684;9.918;2023-02-18T22:27:19;7.50;99.90
8114;DHT22;4099;52.684;9.918;2023-02-18T22:32:21;7.50;99.90
8114;DHT22;4099;52.684;9.918;2023-02-18T22:37:23;7.50;99.90
8114;DHT22;4099;52.684;9.918;2023-02-18T22:42:26;7.50;99.90
8114;DHT22;4099;52.684;9.918;2023-02-18T22:47:28;7.50;99.90
8114;DHT22;4099;52.684;9.918;2023-02-18T22:52:29;7.50;99.90
8114;DHT22;4099;52.684;9.918;2023-02-18T22:57:33;7.50;99.90
8114;DHT22;4099;52.684;9.918;2023-02-18T23:02:35;7.50;99.90
8114;DHT22;4099;52.684;9.918;2023-02-18T23:07:40;7.50;99.90
8114;DHT22;4099;52.684;9.918;2023-02-18T23:12:43;7.50;99.90
8114;DHT22;4099;52.684;9.918;2023-02-18T23:17:47;7.50;99.90
8114;DHT22;4099;52.684;9.918;2023-02-18T23:22:49;7.50;99.90
8114;DHT22;4099;52.684;9.918;2023-02-18T23:27:52;7.40;99.90
8114;DHT22;4099;52.684;9.918;2023-02-18T23:32:54;7.50;99.90
8114;DHT22;4099;52.684;9.918;2023-02-18T23:37:55;7.40;99.90
8114;DHT22;4099;52.684;9.918;2023-02-18T23:43:07;7.50;99.90
8114;DHT22;4099;52.684;9.918;2023-02-18T23:48:09;7.60;99.90
8114;DHT22;4099;52.684;9.918;2023-02-18T23:53:11;7.40;99.90
8114;DHT22;4099;52.684;9.918;2023-02-18T23:58:14;7.40;99.90
